Time;durP1;ratioP1;P1;durP2;ratioP2;P2;SDS_P1;SDS_P2;PMS_P1;PMS_P2;Temp;Humidity;BMP_temperature;BMP_pressure;BME280_temperature;BME280_humidity;BME280_pressure;Samples;Min_cycle;Max_cycle;Signal;HPM_P1;HPM_P2
2023/11/30 00:01:12;;;;;;;;;;;3.80;82.50;;;;;;5004066;28;86849;-44
2023/11/30 00:03:38;;;;;;;;;;;3.80;82.60;;;;;;4999587;28;87086;-43
2023/11/30 00:06:04;;;;;;;;;;;3.90;82.60;;;;;;4996998;28;87054;-44
2023/11/30 00:08:30;;;;;;;;;;;3.80;82.60;;;;;;4994418;28;88414;-44
2023/11/30 00:10:56;;;;;;;;;;;3.80;82.40;;;;;;4999657;28;86256;-44
2023/11/30 00:13:21;;;;;;;;;;;3.80;82.50;;;;;;4997431;28;86999;-44
2023/11/30 00:15:47;;;;;;;;;;;3.80;82.60;;;;;;4994924;28;87622;-44
2023/11/30 00:18:12;;;;;;;;;;;3.80;82.60;;;;;;4995447;28;87894;-43
2023/11/30 00:20:37;;;;;;;;;;;3.80;82.60;;;;;;4999345;28;87625;-44
2023/11/30 00:23:03;;;;;;;;;;;3.80;82.50;;;;;;5000514;28;88269;-43
2023/11/30 00:25:28;;;;;;;;;;;3.80;82.50;;;;;;4996373;28;87147;-43
2023/11/30 00:27:54;;;;;;;;;;;3.80;82.30;;;;;;4997990;28;87549;-43
2023/11/30 00:30:20;;;;;;;;;;;3.80;82.40;;;;;;4996644;28;86987;-44
2023/11/30 00:32:45;;;;;;;;;;;3.80;82.50;;;;;;4999287;28;87899;-44
2023/11/30 00:35:11;;;;;;;;;;;3.80;82.50;;;;;;4995985;28;87676;-44
2023/11/30 00:37:36;;;;;;;;;;;3.80;82.40;;;;;;4996178;28;87043;-44
2023/11/30 00:40:03;;;;;;;;;;;3.80;82.40;;;;;;5000756;28;86910;-43
2023/11/30 00:42:29;;;;;;;;;;;3.80;82.40;;;;;;4996077;28;89516;-44
2023/11/30 00:44:55;;;;;;;;;;;3.80;82.30;;;;;;4998435;28;86998;-44
2023/11/30 00:47:20;;;;;;;;;;;3.70;82.30;;;;;;5000718;28;87983;-43
2023/11/30 00:49:46;;;;;;;;;;;3.70;82.30;;;;;;4998668;28;87035;-43
2023/11/30 00:52:11;;;;;;;;;;;3.80;82.50;;;;;;4993964;28;87471;-43
2023/11/30 00:54:37;;;;;;;;;;;3.70;82.30;;;;;;4996043;28;87495;-44
2023/11/30 00:57:03;;;;;;;;;;;3.70;82.50;;;;;;5001173;28;87018;-44
2023/11/30 00:59:28;;;;;;;;;;;3.70;82.40;;;;;;4997630;28;87897;-43
2023/11/30 01:01:54;;;;;;;;;;;3.70;82.40;;;;;;5003628;28;89954;-43
2023/11/30 01:04:19;;;;;;;;;;;3.70;82.30;;;;;;4995126;28;87025;-44
2023/11/30 01:06:45;;;;;;;;;;;3.70;82.40;;;;;;4996357;28;87605;-43
2023/11/30 01:09:11;;;;;;;;;;;3.70;82.20;;;;;;4997637;28;86986;-44
2023/11/30 01:11:43;;;;;;;;;;;3.70;82.30;;;;;;4995380;28;88015;-43
2023/11/30 01:14:09;;;;;;;;;;;3.70;82.30;;;;;;4994578;28;88504;-44
2023/11/30 01:16:34;;;;;;;;;;;3.70;82.40;;;;;;4993871;28;87108;-44
2023/11/30 01:19:00;;;;;;;;;;;3.70;82.30;;;;;;5000572;28;86876;-44
2023/11/30 01:21:25;;;;;;;;;;;3.70;82.30;;;;;;5000473;28;88359;-44
2023/11/30 01:23:51;;;;;;;;;;;3.70;82.30;;;;;;4994357;28;86700;-43
2023/11/30 01:26:16;;;;;;;;;;;3.60;82.30;;;;;;5000389;28;86799;-43
2023/11/30 01:28:42;;;;;;;;;;;3.70;82.30;;;;;;4993674;28;87085;-44
2023/11/30 01:31:07;;;;;;;;;;;3.60;82.20;;;;;;4998671;28;87948;-44
2023/11/30 01:33:33;;;;;;;;;;;3.70;82.30;;;;;;4997112;28;86967;-43
2023/11/30 01:35:58;;;;;;;;;;;3.70;82.30;;;;;;4995313;28;87003;-44
2023/11/30 01:38:24;;;;;;;;;;;3.60;82.20;;;;;;4999813;28;87022;-44
2023/11/30 01:40:49;;;;;;;;;;;3.60;82.30;;;;;;4997813;28;87594;-44
2023/11/30 01:43:16;;;;;;;;;;;3.60;82.40;;;;;;4998838;28;87284;-44
2023/11/30 01:45:41;;;;;;;;;;;3.60;82.40;;;;;;4997466;28;87014;-44
2023/11/30 01:48:07;;;;;;;;;;;3.60;82.20;;;;;;5004220;28;86864;-44
2023/11/30 01:50:32;;;;;;;;;;;3.60;82.20;;;;;;5001056;28;87582;-44
2023/11/30 01:52:58;;;;;;;;;;;3.60;82.20;;;;;;4997729;28;87421;-43
2023/11/30 01:55:23;;;;;;;;;;;3.60;82.20;;;;;;4999288;28;87949;-44
2023/11/30 01:57:49;;;;;;;;;;;3.60;82.20;;;;;;5000827;28;87755;-43
2023/11/30 02:00:15;;;;;;;;;;;3.60;82.20;;;;;;4998324;28;88614;-43
2023/11/30 02:02:41;;;;;;;;;;;3.60;82.30;;;;;;4998685;28;87023;-44
2023/11/30 02:05:07;;;;;;;;;;;3.60;82.40;;;;;;5003742;28;86906;-44
2023/11/30 02:07:32;;;;;;;;;;;3.60;82.20;;;;;;5000951;28;87782;-44
2023/11/30 02:09:58;;;;;;;;;;;3.60;82.10;;;;;;5001921;28;86968;-44
2023/11/30 02:12:23;;;;;;;;;;;3.60;82.20;;;;;;5004085;28;87101;-43
2023/11/30 02:14:49;;;;;;;;;;;3.60;82.10;;;;;;5000649;28;86962;-43
2023/11/30 02:17:14;;;;;;;;;;;3.60;82.20;;;;;;5004167;28;87143;-43
2023/11/30 02:19:40;;;;;;;;;;;3.60;82.20;;;;;;4998527;28;89383;-44
2023/11/30 02:22:05;;;;;;;;;;;3.60;82.30;;;;;;5000758;28;87423;-44
2023/11/30 02:24:31;;;;;;;;;;;3.50;82.10;;;;;;5000635;28;86890;-43
2023/11/30 02:26:56;;;;;;;;;;;3.50;82.20;;;;;;4997975;28;87433;-43
2023/11/30 02:29:22;;;;;;;;;;;3.50;82.20;;;;;;4997731;28;87681;-44
2023/11/30 02:31:47;;;;;;;;;;;3.50;82.20;;;;;;5005689;28;86914;-44
2023/11/30 02:34:13;;;;;;;;;;;3.50;82.30;;;;;;4996944;28;87085;-45
2023/11/30 02:36:38;;;;;;;;;;;3.50;82.10;;;;;;5003762;28;86241;-45
2023/11/30 02:39:05;;;;;;;;;;;3.50;82.10;;;;;;4999254;28;88372;-44
2023/11/30 02:41:30;;;;;;;;;;;3.50;82.00;;;;;;5000146;28;86949;-43
2023/11/30 02:43:56;;;;;;;;;;;3.50;82.20;;;;;;4996855;28;87822;-43
2023/11/30 02:46:21;;;;;;;;;;;3.50;82.30;;;;;;4998859;28;88565;-43
2023/11/30 02:48:47;;;;;;;;;;;3.50;82.20;;;;;;4999710;28;87114;-45
2023/11/30 02:51:12;;;;;;;;;;;3.50;82.30;;;;;;4998545;28;87092;-44
2023/11/30 02:53:38;;;;;;;;;;;3.50;82.20;;;;;;5004056;28;87624;-44
2023/11/30 02:56:03;;;;;;;;;;;3.50;82.20;;;;;;4993767;28;87560;-43
2023/11/30 02:58:29;;;;;;;;;;;3.50;82.20;;;;;;4998911;28;88557;-43
2023/11/30 03:00:54;;;;;;;;;;;3.40;82.30;;;;;;5000299;28;86359;-43
2023/11/30 03:03:22;;;;;;;;;;;3.50;82.40;;;;;;4999471;28;87021;-43
2023/11/30 03:05:48;;;;;;;;;;;3.40;82.20;;;;;;4996986;28;87386;-43
2023/11/30 03:08:13;;;;;;;;;;;3.40;82.30;;;;;;4998020;28;87938;-43
2023/11/30 03:10:39;;;;;;;;;;;3.40;82.30;;;;;;4997595;28;88711;-44
2023/11/30 03:13:04;;;;;;;;;;;3.40;82.10;;;;;;4992283;28;87036;-44
2023/11/30 03:15:30;;;;;;;;;;;3.40;82.40;;;;;;5002470;28;87345;-45
2023/11/30 03:17:55;;;;;;;;;;;3.40;82.20;;;;;;4996168;28;87748;-43
2023/11/30 03:20:21;;;;;;;;;;;3.40;82.20;;;;;;4999032;28;86946;-43
2023/11/30 03:22:47;;;;;;;;;;;3.40;82.20;;;;;;4995666;28;87136;-44
2023/11/30 03:25:12;;;;;;;;;;;3.40;82.30;;;;;;4998267;28;86787;-44
2023/11/30 03:27:38;;;;;;;;;;;3.40;82.20;;;;;;4996350;28;87045;-44
2023/11/30 03:30:05;;;;;;;;;;;3.40;82.30;;;;;;4998326;28;87054;-44
2023/11/30 03:32:31;;;;;;;;;;;3.40;82.30;;;;;;4998024;28;88485;-43
2023/11/30 03:34:56;;;;;;;;;;;3.40;82.30;;;;;;5005803;28;87083;-44
2023/11/30 03:37:22;;;;;;;;;;;3.40;82.40;;;;;;4997868;28;87415;-43
2023/11/30 03:39:47;;;;;;;;;;;3.40;82.30;;;;;;4996218;28;87094;-44
2023/11/30 03:42:13;;;;;;;;;;;3.30;82.30;;;;;;4997110;28;86968;-45
2023/11/30 03:44:38;;;;;;;;;;;3.30;82.10;;;;;;4998565;28;87326;-43
2023/11/30 03:47:04;;;;;;;;;;;3.30;82.20;;;;;;4994450;28;87070;-44
2023/11/30 03:49:29;;;;;;;;;;;3.40;82.20;;;;;;4999249;28;87937;-44
2023/11/30 03:51:55;;;;;;;;;;;3.40;82.10;;;;;;4996116;28;87444;-43
2023/11/30 03:54:20;;;;;;;;;;;3.40;82.20;;;;;;4999080;28;87071;-44
2023/11/30 03:56:46;;;;;;;;;;;3.40;82.00;;;;;;5001471;28;87843;-43
2023/11/30 03:59:11;;;;;;;;;;;3.40;82.10;;;;;;4984437;28;87130;-44
2023/11/30 04:01:37;;;;;;;;;;;3.30;82.10;;;;;;4996921;28;86911;-44
2023/11/30 04:04:02;;;;;;;;;;;3.30;82.20;;;;;;4997405;28;88500;-43
2023/11/30 04:06:28;;;;;;;;;;;3.30;82.20;;;;;;5000099;28;87738;-44
2023/11/30 04:08:54;;;;;;;;;;;3.40;82.10;;;;;;4994241;28;86861;-43
2023/11/30 04:11:19;;;;;;;;;;;3.30;82.20;;;;;;4998904;28;87591;-44
2023/11/30 04:13:45;;;;;;;;;;;3.30;82.10;;;;;;5005185;28;86324;-44
2023/11/30 04:16:14;;;;;;;;;;;3.30;82.20;;;;;;4993455;28;86992;-43
2023/11/30 04:18:40;;;;;;;;;;;3.30;82.10;;;;;;4999793;28;86875;-44
2023/11/30 04:21:06;;;;;;;;;;;3.30;82.00;;;;;;4998082;28;88027;-44
2023/11/30 04:23:31;;;;;;;;;;;3.20;82.10;;;;;;4997247;28;87502;-43
2023/11/30 04:25:57;;;;;;;;;;;3.20;82.10;;;;;;4996047;28;86883;-45
2023/11/30 04:28:22;;;;;;;;;;;3.20;82.10;;;;;;4998483;28;86906;-44
2023/11/30 04:30:47;;;;;;;;;;;3.20;82.10;;;;;;5003649;28;87454;-44
2023/11/30 04:33:13;;;;;;;;;;;3.20;82.20;;;;;;4994959;28;86935;-44
2023/11/30 04:35:39;;;;;;;;;;;3.20;82.10;;;;;;4999258;28;87527;-44
2023/11/30 04:38:04;;;;;;;;;;;3.20;82.10;;;;;;4997933;28;87979;-44
2023/11/30 04:40:30;;;;;;;;;;;3.20;82.00;;;;;;4997670;28;86968;-44
2023/11/30 04:42:55;;;;;;;;;;;3.20;82.00;;;;;;4998453;28;87543;-45
2023/11/30 04:45:21;;;;;;;;;;;3.20;82.10;;;;;;5001319;28;88406;-44
2023/11/30 04:47:46;;;;;;;;;;;3.20;82.20;;;;;;4996785;28;88942;-45
2023/11/30 04:50:12;;;;;;;;;;;3.20;82.00;;;;;;4998259;28;87556;-44
2023/11/30 04:52:37;;;;;;;;;;;3.20;82.20;;;;;;4997997;28;86951;-44
2023/11/30 04:55:03;;;;;;;;;;;3.20;82.10;;;;;;4994917;28;87049;-44
2023/11/30 04:57:28;;;;;;;;;;;3.20;82.20;;;;;;4997557;28;87428;-44
2023/11/30 04:59:54;;;;;;;;;;;3.20;82.20;;;;;;4998757;28;86947;-44
2023/11/30 05:02:19;;;;;;;;;;;3.20;82.30;;;;;;5001640;28;86709;-44
2023/11/30 05:04:45;;;;;;;;;;;3.20;82.30;;;;;;4994776;28;87817;-44
2023/11/30 05:07:10;;;;;;;;;;;3.10;82.20;;;;;;4997398;28;87525;-43
2023/11/30 05:09:36;;;;;;;;;;;3.10;82.20;;;;;;4998522;28;88457;-43
2023/11/30 05:12:01;;;;;;;;;;;3.10;82.10;;;;;;5004161;28;87036;-44
2023/11/30 05:14:27;;;;;;;;;;;3.10;82.20;;;;;;4999322;28;87035;-43
2023/11/30 05:16:52;;;;;;;;;;;3.10;82.20;;;;;;5001847;28;87491;-44
2023/11/30 05:19:18;;;;;;;;;;;3.10;82.30;;;;;;4999510;28;87091;-43
2023/11/30 05:21:43;;;;;;;;;;;3.10;82.20;;;;;;5004151;28;87494;-43
2023/11/30 05:24:09;;;;;;;;;;;3.10;82.10;;;;;;5001338;28;86981;-43
2023/11/30 05:26:34;;;;;;;;;;;3.10;82.30;;;;;;5003258;28;86840;-43
2023/11/30 05:29:00;;;;;;;;;;;3.10;82.30;;;;;;5003513;28;87421;-43
2023/11/30 05:31:25;;;;;;;;;;;3.10;82.30;;;;;;5001803;28;87077;-44
2023/11/30 05:33:51;;;;;;;;;;;3.10;82.30;;;;;;4994902;28;88059;-43
2023/11/30 05:36:16;;;;;;;;;;;3.10;82.20;;;;;;4999438;28;87445;-44
2023/11/30 05:38:42;;;;;;;;;;;3.10;82.30;;;;;;5000533;28;87054;-44
2023/11/30 05:41:07;;;;;;;;;;;3.10;82.30;;;;;;4996476;28;88458;-44
2023/11/30 05:43:33;;;;;;;;;;;3.00;82.40;;;;;;4998516;28;88854;-44
2023/11/30 05:45:58;;;;;;;;;;;3.10;82.10;;;;;;5000536;28;87060;-43
2023/11/30 05:48:24;;;;;;;;;;;3.00;82.40;;;;;;4999388;28;86978;-43
2023/11/30 05:50:49;;;;;;;;;;;3.00;82.30;;;;;;4999801;28;86353;-44
2023/11/30 05:53:15;;;;;;;;;;;3.00;82.10;;;;;;5001164;28;87786;-44
2023/11/30 05:55:40;;;;;;;;;;;3.00;82.30;;;;;;5000553;28;87327;-44
2023/11/30 05:58:06;;;;;;;;;;;3.00;82.40;;;;;;4995031;28;89174;-44
2023/11/30 06:00:31;;;;;;;;;;;3.00;82.30;;;;;;5000231;28;88837;-43
2023/11/30 06:02:57;;;;;;;;;;;3.10;82.30;;;;;;4996361;28;86886;-44
2023/11/30 06:05:22;;;;;;;;;;;3.00;82.30;;;;;;4999816;28;86940;-44
2023/11/30 06:07:48;;;;;;;;;;;3.00;82.30;;;;;;5001006;28;88038;-44
2023/11/30 06:10:15;;;;;;;;;;;3.00;82.30;;;;;;4995946;28;88929;-44
2023/11/30 06:12:40;;;;;;;;;;;3.00;82.30;;;;;;4995129;28;86874;-43
2023/11/30 06:15:06;;;;;;;;;;;2.90;82.10;;;;;;4996445;28;87620;-44
2023/11/30 06:17:31;;;;;;;;;;;3.00;82.30;;;;;;4991766;28;88092;-43
2023/11/30 06:19:57;;;;;;;;;;;3.00;82.30;;;;;;4999743;28;87592;-44
2023/11/30 06:22:22;;;;;;;;;;;3.00;82.30;;;;;;4998309;28;88498;-43
2023/11/30 06:24:48;;;;;;;;;;;3.00;82.20;;;;;;4998381;28;86985;-43
2023/11/30 06:27:13;;;;;;;;;;;3.00;82.20;;;;;;5004944;28;87099;-43
2023/11/30 06:29:39;;;;;;;;;;;3.00;82.20;;;;;;4996466;28;87521;-43
2023/11/30 06:32:04;;;;;;;;;;;3.00;82.10;;;;;;5002777;28;87029;-43
2023/11/30 06:34:30;;;;;;;;;;;2.90;82.30;;;;;;5002861;28;87655;-44
2023/11/30 06:36:55;;;;;;;;;;;2.90;82.80;;;;;;4995720;28;87130;-44
2023/11/30 06:39:21;;;;;;;;;;;3.00;82.30;;;;;;5000400;28;86801;-43
2023/11/30 06:41:47;;;;;;;;;;;2.90;82.40;;;;;;4997337;28;87402;-44
2023/11/30 06:44:13;;;;;;;;;;;2.90;82.30;;;;;;5001551;28;88815;-44
2023/11/30 06:46:42;;;;;;;;;;;2.90;82.30;;;;;;4994252;28;87969;-43
2023/11/30 06:49:08;;;;;;;;;;;2.90;82.30;;;;;;5002402;28;87508;-43
2023/11/30 06:51:33;;;;;;;;;;;2.90;82.30;;;;;;4994482;28;88397;-44
2023/11/30 06:53:59;;;;;;;;;;;2.90;82.40;;;;;;4991646;28;88554;-43
2023/11/30 06:56:24;;;;;;;;;;;2.90;82.20;;;;;;4993250;28;86905;-43
2023/11/30 06:58:50;;;;;;;;;;;2.90;82.30;;;;;;4942711;28;1611268;-43
2023/11/30 07:01:16;;;;;;;;;;;2.90;82.30;;;;;;4999183;28;87609;-43
2023/11/30 07:03:42;;;;;;;;;;;2.90;82.20;;;;;;4994511;28;87262;-44
2023/11/30 07:06:07;;;;;;;;;;;2.90;82.20;;;;;;4998884;28;87225;-44
2023/11/30 07:08:33;;;;;;;;;;;2.90;82.30;;;;;;5000594;28;88343;-44
2023/11/30 07:10:58;;;;;;;;;;;2.90;82.40;;;;;;4995518;28;88111;-47
2023/11/30 07:13:24;;;;;;;;;;;2.90;82.40;;;;;;4998567;28;87655;-45
2023/11/30 07:15:50;;;;;;;;;;;2.90;82.20;;;;;;5004285;28;87019;-44
2023/11/30 07:18:15;;;;;;;;;;;2.80;82.40;;;;;;4995818;28;87115;-44
2023/11/30 07:20:41;;;;;;;;;;;2.80;82.40;;;;;;4995946;28;87528;-43
2023/11/30 07:23:07;;;;;;;;;;;2.80;82.40;;;;;;5000369;28;87906;-43
2023/11/30 07:25:32;;;;;;;;;;;2.80;82.30;;;;;;4998887;28;88039;-44
2023/11/30 07:27:59;;;;;;;;;;;2.80;82.40;;;;;;5003475;28;86613;-44
2023/11/30 07:30:25;;;;;;;;;;;2.80;82.60;;;;;;5002781;28;88025;-43
2023/11/30 07:32:53;;;;;;;;;;;2.80;82.20;;;;;;4996171;28;86955;-44
2023/11/30 07:35:18;;;;;;;;;;;2.80;82.50;;;;;;4993126;28;88067;-44
2023/11/30 07:37:44;;;;;;;;;;;2.80;82.40;;;;;;4995624;28;87694;-43
2023/11/30 07:40:10;;;;;;;;;;;2.80;82.30;;;;;;4996825;28;88652;-45
2023/11/30 07:42:35;;;;;;;;;;;2.80;82.40;;;;;;5002479;28;87222;-43
2023/11/30 07:45:02;;;;;;;;;;;2.80;82.50;;;;;;4996845;28;87693;-43
2023/11/30 07:47:27;;;;;;;;;;;2.80;82.40;;;;;;4996138;28;88862;-45
2023/11/30 07:49:54;;;;;;;;;;;2.80;82.30;;;;;;4999312;28;86971;-43
2023/11/30 07:52:19;;;;;;;;;;;2.80;82.50;;;;;;4994685;28;87940;-44
2023/11/30 07:54:45;;;;;;;;;;;2.80;82.50;;;;;;5003228;28;87105;-44
2023/11/30 07:57:11;;;;;;;;;;;2.80;82.40;;;;;;4996461;28;86920;-43
2023/11/30 07:59:37;;;;;;;;;;;2.80;82.50;;;;;;5002337;28;89376;-43
2023/11/30 08:02:03;;;;;;;;;;;2.80;82.40;;;;;;4995320;28;88373;-44
2023/11/30 08:04:29;;;;;;;;;;;2.80;82.40;;;;;;4993561;28;87111;-44
2023/11/30 08:06:55;;;;;;;;;;;2.80;82.50;;;;;;4995928;28;87432;-43
2023/11/30 08:09:21;;;;;;;;;;;2.80;82.50;;;;;;5001135;28;87138;-44
2023/11/30 08:11:46;;;;;;;;;;;2.70;82.50;;;;;;4999427;28;87997;-45
2023/11/30 08:14:12;;;;;;;;;;;2.80;82.50;;;;;;4997772;28;87521;-43
2023/11/30 08:16:38;;;;;;;;;;;2.80;83.00;;;;;;4997326;28;87896;-43
2023/11/30 08:19:03;;;;;;;;;;;2.70;82.40;;;;;;4997858;28;88483;-44
2023/11/30 08:21:29;;;;;;;;;;;2.70;82.40;;;;;;4995453;28;87789;-44
2023/11/30 08:23:54;;;;;;;;;;;2.80;82.50;;;;;;4993618;28;88110;-44
2023/11/30 08:26:20;;;;;;;;;;;2.80;82.50;;;;;;4999127;28;87011;-43
2023/11/30 08:28:46;;;;;;;;;;;2.80;82.40;;;;;;4992341;28;87023;-43
2023/11/30 08:31:12;;;;;;;;;;;2.80;82.30;;;;;;5000741;28;87688;-43
2023/11/30 08:33:37;;;;;;;;;;;2.80;82.40;;;;;;5001323;28;88468;-43
2023/11/30 08:36:04;;;;;;;;;;;2.80;82.50;;;;;;5000411;28;87056;-43
2023/11/30 08:38:33;;;;;;;;;;;2.80;82.40;;;;;;4998891;28;87350;-44
2023/11/30 08:40:59;;;;;;;;;;;2.80;82.50;;;;;;4993781;28;86348;-43
2023/11/30 08:43:24;;;;;;;;;;;2.80;82.30;;;;;;4997563;28;88485;-43
2023/11/30 08:45:50;;;;;;;;;;;2.80;82.30;;;;;;4998836;28;88733;-43
2023/11/30 08:48:16;;;;;;;;;;;2.90;82.30;;;;;;4996390;28;88013;-43
2023/11/30 08:50:41;;;;;;;;;;;2.90;82.40;;;;;;4998621;28;88985;-43
2023/11/30 08:53:07;;;;;;;;;;;2.90;82.00;;;;;;4998199;28;86822;-43
2023/11/30 08:55:32;;;;;;;;;;;2.90;82.10;;;;;;4997275;28;87044;-43
2023/11/30 08:57:58;;;;;;;;;;;2.90;82.30;;;;;;5004590;28;87867;-43
2023/11/30 09:00:24;;;;;;;;;;;2.90;82.20;;;;;;4998140;28;86917;-43
2023/11/30 09:02:49;;;;;;;;;;;2.90;82.20;;;;;;4998931;28;87082;-43
2023/11/30 09:05:15;;;;;;;;;;;2.90;82.50;;;;;;4998981;28;86583;-43
2023/11/30 09:07:40;;;;;;;;;;;2.90;82.30;;;;;;4998394;28;87740;-44
2023/11/30 09:10:06;;;;;;;;;;;2.90;82.30;;;;;;4997002;28;86887;-44
2023/11/30 09:12:32;;;;;;;;;;;2.90;82.20;;;;;;4994241;28;89422;-43
2023/11/30 09:14:59;;;;;;;;;;;2.90;82.30;;;;;;4997854;28;86898;-43
2023/11/30 09:17:24;;;;;;;;;;;2.90;82.10;;;;;;4998304;28;87929;-43
2023/11/30 09:19:50;;;;;;;;;;;2.90;82.30;;;;;;5001193;28;87360;-43
2023/11/30 09:22:15;;;;;;;;;;;2.90;82.30;;;;;;4999161;28;88023;-43
2023/11/30 09:24:41;;;;;;;;;;;2.90;82.30;;;;;;4993974;28;87485;-43
2023/11/30 09:27:08;;;;;;;;;;;2.90;82.30;;;;;;4998795;28;87047;-43
2023/11/30 09:29:37;;;;;;;;;;;2.90;82.00;;;;;;4997498;28;87280;-43
2023/11/30 09:32:03;;;;;;;;;;;2.90;82.00;;;;;;4993338;28;88706;-45
2023/11/30 09:34:29;;;;;;;;;;;3.00;82.10;;;;;;4997397;28;87042;-45
2023/11/30 09:36:55;;;;;;;;;;;3.00;82.10;;;;;;4996886;28;88155;-43
2023/11/30 09:39:21;;;;;;;;;;;2.90;81.90;;;;;;4998872;28;87445;-43
2023/11/30 09:41:46;;;;;;;;;;;3.00;82.40;;;;;;4993761;28;87786;-43
2023/11/30 09:44:12;;;;;;;;;;;2.90;82.10;;;;;;4995744;28;88550;-44
2023/11/30 09:46:38;;;;;;;;;;;3.00;82.30;;;;;;4998268;28;87007;-44
2023/11/30 09:49:06;;;;;;;;;;;3.00;82.60;;;;;;5000334;28;87013;-43
2023/11/30 09:51:32;;;;;;;;;;;3.00;82.40;;;;;;4993460;28;88550;-43
2023/11/30 09:53:58;;;;;;;;;;;3.00;82.10;;;;;;5001676;28;86664;-44
2023/11/30 09:56:26;;;;;;;;;;;3.00;82.20;;;;;;5003101;28;86988;-43
2023/11/30 09:58:52;;;;;;;;;;;3.00;81.90;;;;;;4996144;28;88615;-45
2023/11/30 10:01:17;;;;;;;;;;;3.00;82.40;;;;;;5001667;28;87918;-43
2023/11/30 10:03:43;;;;;;;;;;;3.00;82.30;;;;;;5001484;28;87540;-43
2023/11/30 10:06:09;;;;;;;;;;;2.90;82.00;;;;;;5001030;28;87082;-43
2023/11/30 10:08:34;;;;;;;;;;;3.00;82.50;;;;;;5004387;28;88041;-43
2023/11/30 10:10:59;;;;;;;;;;;3.00;82.80;;;;;;4996928;28;87633;-44
2023/11/30 10:13:25;;;;;;;;;;;3.00;82.00;;;;;;4997385;28;87085;-43
2023/11/30 10:15:50;;;;;;;;;;;3.00;82.30;;;;;;5001345;28;87053;-43
2023/11/30 10:18:16;;;;;;;;;;;3.00;82.70;;;;;;5003371;28;86885;-43
2023/11/30 10:20:42;;;;;;;;;;;3.00;82.30;;;;;;5002382;28;87078;-44
2023/11/30 10:23:13;;;;;;;;;;;3.00;82.70;;;;;;5003225;28;86895;-44
2023/11/30 10:25:42;;;;;;;;;;;3.00;82.50;;;;;;5003307;28;88738;-44
2023/11/30 10:28:14;;;;;;;;;;;3.00;82.80;;;;;;5000300;28;88651;-43
2023/11/30 10:30:41;;;;;;;;;;;3.00;82.70;;;;;;4996770;28;88485;-44
2023/11/30 10:33:19;;;;;;;;;;;2.90;82.40;;;;;;4998042;28;87076;-43
2023/11/30 10:35:46;;;;;;;;;;;3.00;82.50;;;;;;4999246;28;86954;-44
2023/11/30 10:38:18;;;;;;;;;;;3.00;82.80;;;;;;4996729;28;87486;-44
2023/11/30 10:40:47;;;;;;;;;;;2.90;82.60;;;;;;4998709;28;86945;-44
2023/11/30 10:43:13;;;;;;;;;;;3.00;82.60;;;;;;4999277;28;86760;-44
2023/11/30 10:45:40;;;;;;;;;;;3.00;82.60;;;;;;4997542;28;87452;-43
2023/11/30 10:48:10;;;;;;;;;;;2.90;82.40;;;;;;4997764;28;86948;-43
2023/11/30 10:50:36;;;;;;;;;;;3.00;82.70;;;;;;4997485;28;88290;-44
2023/11/30 10:53:04;;;;;;;;;;;2.90;82.70;;;;;;4997900;28;87325;-43
2023/11/30 10:55:30;;;;;;;;;;;2.90;82.70;;;;;;4998310;28;86836;-45
2023/11/30 10:57:56;;;;;;;;;;;3.00;83.00;;;;;;4997244;28;87773;-45
2023/11/30 11:00:23;;;;;;;;;;;3.00;83.00;;;;;;4999779;28;86964;-45
2023/11/30 11:02:49;;;;;;;;;;;3.00;82.80;;;;;;4998326;28;86884;-43
2023/11/30 11:05:15;;;;;;;;;;;3.00;82.70;;;;;;4997446;28;87354;-44
2023/11/30 11:07:44;;;;;;;;;;;3.00;83.00;;;;;;5006277;28;86290;-44
2023/11/30 11:10:19;;;;;;;;;;;3.00;82.80;;;;;;4997021;28;88492;-46
2023/11/30 11:12:48;;;;;;;;;;;3.00;82.90;;;;;;4999623;28;87599;-45
2023/11/30 11:15:13;;;;;;;;;;;3.00;82.80;;;;;;4999578;28;87869;-45
2023/11/30 11:17:50;;;;;;;;;;;3.00;83.10;;;;;;4995185;28;90152;-44
2023/11/30 11:20:22;;;;;;;;;;;3.00;83.20;;;;;;4650622;28;10001755;-44
2023/11/30 11:22:52;;;;;;;;;;;3.00;83.10;;;;;;4997195;28;88645;-43
2023/11/30 11:25:17;;;;;;;;;;;3.00;83.00;;;;;;5001138;28;87037;-44
2023/11/30 11:27:43;;;;;;;;;;;2.90;83.10;;;;;;4995540;28;87320;-44
2023/11/30 11:30:10;;;;;;;;;;;2.90;83.30;;;;;;4999620;28;87063;-44
2023/11/30 11:32:35;;;;;;;;;;;2.90;83.10;;;;;;4998237;28;88055;-45
2023/11/30 11:35:05;;;;;;;;;;;3.00;83.20;;;;;;4998425;28;88593;-43
2023/11/30 11:37:31;;;;;;;;;;;3.00;83.40;;;;;;4998700;28;87090;-43
2023/11/30 11:39:56;;;;;;;;;;;3.00;83.40;;;;;;4998707;28;87935;-44
2023/11/30 11:42:22;;;;;;;;;;;3.00;83.20;;;;;;4998716;28;88424;-43
2023/11/30 11:44:49;;;;;;;;;;;3.00;83.30;;;;;;4996399;28;87006;-44
2023/11/30 11:47:15;;;;;;;;;;;3.00;83.40;;;;;;4998632;28;87114;-44
2023/11/30 11:49:41;;;;;;;;;;;3.00;83.50;;;;;;5003083;28;87312;-44
2023/11/30 11:52:06;;;;;;;;;;;3.00;83.30;;;;;;4997291;28;87389;-44
2023/11/30 11:54:32;;;;;;;;;;;3.00;83.40;;;;;;5001949;28;87262;-43
2023/11/30 11:56:57;;;;;;;;;;;3.00;83.40;;;;;;4997173;28;86314;-44
2023/11/30 11:59:24;;;;;;;;;;;3.00;83.40;;;;;;5001216;28;87144;-43
2023/11/30 12:01:53;;;;;;;;;;;3.00;83.70;;;;;;4997149;28;88339;-44
2023/11/30 12:04:33;;;;;;;;;;;3.00;83.60;;;;;;4995390;28;87990;-44
2023/11/30 12:07:00;;;;;;;;;;;3.00;83.70;;;;;;5001343;28;88945;-43
2023/11/30 12:09:25;;;;;;;;;;;3.00;83.90;;;;;;4998863;28;88493;-43
2023/11/30 12:11:51;;;;;;;;;;;3.00;83.90;;;;;;4997863;28;87000;-44
2023/11/30 12:14:19;;;;;;;;;;;3.00;84.00;;;;;;4994431;28;88706;-44
2023/11/30 12:16:44;;;;;;;;;;;3.00;83.90;;;;;;4998007;28;87354;-44
2023/11/30 12:19:10;;;;;;;;;;;3.00;84.00;;;;;;5003521;28;89474;-45
2023/11/30 12:21:36;;;;;;;;;;;3.00;83.90;;;;;;5000119;28;87701;-44
2023/11/30 12:24:02;;;;;;;;;;;3.00;84.10;;;;;;5001909;28;87066;-44
2023/11/30 12:26:27;;;;;;;;;;;3.00;84.30;;;;;;4996480;28;87012;-45
2023/11/30 12:28:54;;;;;;;;;;;3.00;84.10;;;;;;4999771;28;89454;-44
2023/11/30 12:31:21;;;;;;;;;;;3.00;84.30;;;;;;4995138;28;87091;-44
2023/11/30 12:33:46;;;;;;;;;;;3.10;84.30;;;;;;5003749;28;87065;-44
2023/11/30 12:36:12;;;;;;;;;;;3.10;84.30;;;;;;4998544;28;86993;-43
2023/11/30 12:38:37;;;;;;;;;;;3.10;84.20;;;;;;4997936;28;86962;-44
2023/11/30 12:41:03;;;;;;;;;;;3.10;84.20;;;;;;4994139;28;86961;-44
2023/11/30 12:43:28;;;;;;;;;;;3.10;84.20;;;;;;4998196;28;87046;-44
2023/11/30 12:45:54;;;;;;;;;;;3.10;84.10;;;;;;4997105;28;86648;-44
2023/11/30 12:48:20;;;;;;;;;;;3.20;84.50;;;;;;5000140;28;88488;-44
2023/11/30 12:50:45;;;;;;;;;;;3.20;84.10;;;;;;4999158;28;87050;-45
2023/11/30 12:53:14;;;;;;;;;;;3.20;84.40;;;;;;4997424;28;87890;-43
2023/11/30 12:55:39;;;;;;;;;;;3.20;84.40;;;;;;4997061;28;88492;-44
2023/11/30 12:58:05;;;;;;;;;;;3.30;84.20;;;;;;4995968;28;87588;-44
2023/11/30 13:00:30;;;;;;;;;;;3.30;84.50;;;;;;4996548;28;87720;-43
2023/11/30 13:02:56;;;;;;;;;;;3.20;84.20;;;;;;4997613;28;87091;-43
2023/11/30 13:05:22;;;;;;;;;;;3.20;84.40;;;;;;4993866;28;87050;-46
2023/11/30 13:07:48;;;;;;;;;;;3.20;85.00;;;;;;4997639;28;88656;-44
2023/11/30 13:10:14;;;;;;;;;;;3.30;84.70;;;;;;4995035;28;86251;-44
2023/11/30 13:12:40;;;;;;;;;;;3.20;85.00;;;;;;4994281;28;86951;-44
2023/11/30 13:15:07;;;;;;;;;;;3.30;85.00;;;;;;4991915;28;89990;-44
2023/11/30 13:17:33;;;;;;;;;;;3.30;85.10;;;;;;5001533;28;88082;-45
2023/11/30 13:20:04;;;;;;;;;;;3.30;85.00;;;;;;4993064;28;87654;-43
2023/11/30 13:22:30;;;;;;;;;;;3.30;84.90;;;;;;4998583;28;87723;-43
2023/11/30 13:24:55;;;;;;;;;;;3.30;85.00;;;;;;4996541;28;86971;-45
2023/11/30 13:27:21;;;;;;;;;;;3.30;85.20;;;;;;5000913;28;87439;-45
2023/11/30 13:29:47;;;;;;;;;;;3.30;85.20;;;;;;4999996;28;88110;-44
2023/11/30 13:32:13;;;;;;;;;;;3.30;84.80;;;;;;4993578;28;87725;-44
2023/11/30 13:34:38;;;;;;;;;;;3.40;85.30;;;;;;5000031;28;87806;-43
2023/11/30 13:37:04;;;;;;;;;;;3.30;85.10;;;;;;4995003;28;86920;-43
2023/11/30 13:39:30;;;;;;;;;;;3.40;85.30;;;;;;5000807;28;86940;-44
2023/11/30 13:41:57;;;;;;;;;;;3.40;85.10;;;;;;5001487;28;88428;-44
2023/11/30 13:44:22;;;;;;;;;;;3.40;85.20;;;;;;4996045;28;88833;-43
2023/11/30 13:46:49;;;;;;;;;;;3.40;85.50;;;;;;5000828;28;87401;-44
2023/11/30 13:49:15;;;;;;;;;;;3.40;85.40;;;;;;5004014;28;87069;-44
2023/11/30 13:51:40;;;;;;;;;;;3.40;85.40;;;;;;4993240;28;87051;-44
2023/11/30 13:54:06;;;;;;;;;;;3.50;85.70;;;;;;4995800;28;87518;-44
2023/11/30 13:56:32;;;;;;;;;;;3.50;85.60;;;;;;4996948;28;86821;-43
2023/11/30 13:58:58;;;;;;;;;;;3.50;85.30;;;;;;5004428;28;87828;-43
2023/11/30 14:01:23;;;;;;;;;;;3.50;85.50;;;;;;4995198;28;87029;-45
2023/11/30 14:03:51;;;;;;;;;;;3.50;85.40;;;;;;4994830;28;87041;-44
2023/11/30 14:06:16;;;;;;;;;;;3.50;85.40;;;;;;4998091;28;89329;-44
2023/11/30 14:08:42;;;;;;;;;;;3.50;85.40;;;;;;5000914;28;87715;-43
2023/11/30 14:11:11;;;;;;;;;;;3.50;85.90;;;;;;4996451;28;87476;-44
2023/11/30 14:13:37;;;;;;;;;;;3.50;85.40;;;;;;4999350;28;87653;-44
2023/11/30 14:16:03;;;;;;;;;;;3.50;85.50;;;;;;4997254;28;87044;-43
2023/11/30 14:18:29;;;;;;;;;;;3.50;85.90;;;;;;5000502;28;87616;-43
2023/11/30 14:20:54;;;;;;;;;;;3.60;85.90;;;;;;4997726;28;88430;-44
2023/11/30 14:23:20;;;;;;;;;;;3.50;85.70;;;;;;4997113;28;86765;-44